Time;durP1;ratioP1;P1;durP2;ratioP2;P2;SDS_P1;SDS_P2;PMS_P1;PMS_P2;Temp;Humidity;BMP_temperature;BMP_pressure;BME280_temperature;BME280_humidity;BME280_pressure;Samples;Min_cycle;Max_cycle;Signal;HPM_P1;HPM_P2
2020/12/26 00:00:19;;;;;;;4.20;3.50;;;;;;;18.14;44.72;102112.53;5015048;28;20100;-80
2020/12/26 00:02:46;;;;;;;4.60;3.65;;;;;;;18.07;45.04;102103.13;5014926;28;20050;-80
2020/12/26 00:05:11;;;;;;;5.68;3.55;;;;;;;18.09;44.86;102109.94;5014972;28;20037;-80
2020/12/26 00:07:37;;;;;;;5.88;3.83;;;;;;;17.93;45.77;102108.88;5014830;28;20589;-79
2020/12/26 00:10:03;;;;;;;6.07;3.15;;;;;;;18.19;44.79;102108.75;5014961;28;20084;-79
2020/12/26 00:12:29;;;;;;;6.30;3.85;;;;;;;18.19;44.92;102103.22;5014949;28;20089;-78
2020/12/26 00:14:55;;;;;;;4.95;3.50;;;;;;;17.80;46.38;102104.34;5014783;28;20026;-80
2020/12/26 00:17:21;;;;;;;4.53;3.17;;;;;;;17.92;45.79;102096.19;5014871;28;20392;-80
2020/12/26 00:19:46;;;;;;;3.90;3.15;;;;;;;18.16;45.28;102101.94;5014628;28;20033;-80
2020/12/26 00:22:12;;;;;;;5.95;3.67;;;;;;;17.95;46.00;102095.50;5014470;28;20037;-80
2020/12/26 00:24:38;;;;;;;4.85;3.90;;;;;;;18.15;45.49;102099.53;5014613;28;20032;-79
2020/12/26 00:27:03;;;;;;;8.25;3.67;;;;;;;18.20;45.28;102099.31;5014555;28;20026;-80
2020/12/26 00:29:29;;;;;;;4.53;3.38;;;;;;;18.32;44.88;102082.84;5014569;28;20026;-79
2020/12/26 00:31:54;;;;;;;3.67;3.10;;;;;;;18.23;45.07;102077.34;5014422;28;20061;-79
2020/12/26 00:34:21;;;;;;;3.47;3.10;;;;;;;18.21;45.30;102078.81;5014345;28;20498;-76
2020/12/26 00:36:47;;;;;;;4.47;2.50;;;;;;;18.22;45.09;102070.19;5014308;28;20041;-76
2020/12/26 00:39:13;;;;;;;3.47;2.55;;;;;;;18.13;45.50;102063.88;5014180;28;20097;-75
2020/12/26 00:41:38;;;;;;;3.83;2.10;;;;;;;18.21;45.52;102057.50;5014023;28;20062;-76
2020/12/26 00:44:05;;;;;;;2.72;1.92;;;;;;;18.12;45.88;102066.97;5014257;28;20429;-76
2020/12/26 00:46:31;;;;;;;4.22;1.77;;;;;;;18.35;45.45;102065.56;5013897;28;20046;-80
2020/12/26 00:48:57;;;;;;;3.00;1.80;;;;;;;18.25;45.65;102065.94;5013875;28;20030;-80
2020/12/26 00:51:22;;;;;;;1.90;1.52;;;;;;;18.09;46.43;102067.66;5014113;28;20364;-79
2020/12/26 00:53:48;;;;;;;2.95;1.30;;;;;;;18.09;46.31;102062.94;5013988;28;20030;-80
2020/12/26 00:56:13;;;;;;;2.30;1.70;;;;;;;18.00;46.72;102073.22;5013933;28;20030;-79
2020/12/26 00:58:39;;;;;;;3.28;1.30;;;;;;;17.95;46.99;102076.16;5014046;28;20053;-80
2020/12/26 01:01:05;;;;;;;2.65;1.30;;;;;;;18.06;46.97;102076.59;5013904;28;20018;-80
2020/12/26 01:03:31;;;;;;;3.47;1.70;;;;;;;18.27;46.39;102080.25;4996393;28;20033;-80
2020/12/26 01:05:56;;;;;;;3.72;1.83;;;;;;;18.10;46.58;102072.84;5014137;28;20045;-80
2020/12/26 01:08:22;;;;;;;4.18;2.10;;;;;;;17.82;47.56;102071.63;5013438;28;20474;-81
2020/12/26 01:10:48;;;;;;;6.72;1.70;;;;;;;17.92;47.43;102072.13;5013815;28;20045;-79
2020/12/26 01:13:13;;;;;;;4.50;1.80;;;;;;;17.75;47.66;102064.66;5013634;28;20072;-79
2020/12/26 01:15:39;;;;;;;3.90;1.60;;;;;;;17.60;47.74;102059.63;5013653;28;20421;-80
2020/12/26 01:18:05;;;;;;;2.25;0.95;;;;;;;17.75;47.25;102061.88;5013534;28;20060;-79
2020/12/26 01:20:30;;;;;;;9.57;1.85;;;;;;;17.91;46.99;102069.66;5013600;28;20026;-80
2020/12/26 01:22:56;;;;;;;4.38;1.38;;;;;;;17.78;47.28;102062.41;5013377;28;20492;-80
2020/12/26 01:25:22;;;;;;;6.22;1.52;;;;;;;17.94;46.63;102047.69;5013496;28;20033;-79
2020/12/26 01:27:48;;;;;;;7.82;1.45;;;;;;;18.06;46.18;102040.63;5013357;28;20026;-80
2020/12/26 01:30:13;;;;;;;4.53;1.35;;;;;;;17.91;46.87;102050.28;5013368;28;20026;-79
2020/12/26 01:32:39;;;;;;;3.80;1.55;;;;;;;17.93;47.09;102059.09;5013351;28;20089;-77
2020/12/26 01:35:04;;;;;;;6.40;1.60;;;;;;;17.90;46.89;102045.91;5013327;28;20112;-80
2020/12/26 01:37:30;;;;;;;5.25;1.20;;;;;;;17.82;46.89;102046.75;5013202;28;20026;-80
2020/12/26 01:39:56;;;;;;;4.97;1.42;;;;;;;17.98;46.63;102039.53;5013263;28;20389;-80
2020/12/26 01:42:22;;;;;;;3.65;1.67;;;;;;;17.75;47.08;102044.50;5013183;28;20489;-78
2020/12/26 01:44:47;;;;;;;11.15;1.88;;;;;;;17.61;47.25;102036.41;5013091;28;20109;-81
2020/12/26 01:47:15;;;;;;;7.05;1.52;;;;;;;17.45;47.63;102033.31;5012890;28;20046;-80
2020/12/26 01:49:42;;;;;;;10.23;2.05;;;;;;;17.65;46.86;102029.06;5012979;28;20034;-80
2020/12/26 01:52:09;;;;;;;9.55;1.90;;;;;;;17.80;46.16;102032.47;5012871;28;20046;-80
2020/12/26 01:54:35;;;;;;;8.73;1.65;;;;;;;17.80;46.21;102021.41;5012998;28;20026;-80
2020/12/26 01:57:03;;;;;;;8.95;2.08;;;;;;;17.74;46.20;102018.00;5012908;28;20066;-80
2020/12/26 01:59:29;;;;;;;6.80;1.80;;;;;;;17.30;47.49;102027.50;5012805;28;20108;-79
2020/12/26 02:01:57;;;;;;;10.90;2.45;;;;;;;17.53;46.38;102030.88;5012781;28;20062;-79
2020/12/26 02:04:23;;;;;;;10.10;1.83;;;;;;;17.65;45.92;102026.28;5012888;28;20026;-80
2020/12/26 02:06:53;;;;;;;8.23;2.42;;;;;;;17.43;46.15;102026.50;5012827;28;20037;-79
2020/12/26 02:09:20;;;;;;;6.93;1.58;;;;;;;17.29;46.76;102015.66;5012820;28;20511;-79
2020/12/26 02:11:46;;;;;;;8.82;2.63;;;;;;;17.66;45.47;102003.03;5012642;28;20034;-80
2020/12/26 02:14:11;;;;;;;8.85;2.20;;;;;;;17.69;44.99;101991.34;5012682;28;20100;-80
2020/12/26 02:16:45;;;;;;;14.25;2.05;;;;;;;18.09;44.17;101979.94;5012505;28;20077;-79
2020/12/26 02:19:11;;;;;;;10.30;2.30;;;;;;;18.11;43.98;101983.19;5012459;28;20133;-80
2020/12/26 02:21:38;;;;;;;8.07;2.72;;;;;;;18.20;43.59;101978.41;5011876;28;20057;-80
2020/12/26 02:24:04;;;;;;;9.18;2.17;;;;;;;18.24;43.50;101981.34;5012394;28;20658;-79
2020/12/26 02:26:30;;;;;;;7.88;1.75;;;;;;;18.23;43.78;101975.00;5012388;28;20021;-80
2020/12/26 02:28:56;;;;;;;6.75;2.08;;;;;;;18.21;43.58;101966.22;5012494;28;20652;-80
2020/12/26 02:31:23;;;;;;;6.45;2.20;;;;;;;18.17;43.60;101962.50;5012358;28;20428;-80
2020/12/26 02:33:48;;;;;;;8.63;1.70;;;;;;;18.20;43.51;101952.69;5012321;28;20041;-79
2020/12/26 02:36:14;;;;;;;7.93;1.80;;;;;;;18.48;42.79;101941.94;5012292;28;20030;-79
2020/12/26 02:38:41;;;;;;;6.30;2.13;;;;;;;18.14;43.13;101943.00;5012218;28;20108;-79
2020/12/26 02:41:07;;;;;;;6.88;2.03;;;;;;;18.32;42.66;101954.75;5012272;28;20022;-80
2020/12/26 02:43:33;;;;;;;7.20;2.45;;;;;;;17.93;43.47;101943.75;5012205;28;20056;-80
2020/12/26 02:45:59;;;;;;;11.88;2.45;;;;;;;18.20;42.66;101947.16;5012001;28;20047;-79
2020/12/26 02:48:26;;;;;;;13.18;3.33;;;;;;;18.20;42.23;101956.28;5012284;28;20128;-81
2020/12/26 02:50:52;;;;;;;9.43;2.38;;;;;;;17.86;43.03;101951.78;5012133;28;20388;-79
2020/12/26 02:53:18;;;;;;;11.43;3.03;;;;;;;18.03;42.56;101948.09;5012188;28;20052;-79
2020/12/26 02:55:44;;;;;;;11.38;3.33;;;;;;;18.02;42.45;101954.78;5012229;28;20030;-80
2020/12/26 02:58:10;;;;;;;13.60;3.67;;;;;;;17.89;42.43;101947.53;5012134;28;20037;-80
2020/12/26 03:00:35;;;;;;;14.10;4.13;;;;;;;17.63;43.09;101948.44;4994479;28;20561;-79
2020/12/26 03:03:01;;;;;;;13.10;3.08;;;;;;;17.84;42.12;101943.00;5011953;28;20061;-80
2020/12/26 03:05:27;;;;;;;18.65;3.45;;;;;;;17.66;42.72;101942.22;5012135;28;20034;-80
2020/12/26 03:07:52;;;;;;;15.63;4.20;;;;;;;17.87;42.04;101941.53;5012060;28;20370;-80
2020/12/26 03:10:19;;;;;;;15.48;3.05;;;;;;;17.94;41.80;101939.03;5012063;28;20396;-80
2020/12/26 03:12:45;;;;;;;15.65;3.13;;;;;;;18.08;41.45;101933.28;5012119;28;20484;-80
2020/12/26 03:15:10;;;;;;;15.27;3.28;;;;;;;18.14;41.44;101927.22;5011980;28;20097;-79
2020/12/26 03:17:37;;;;;;;13.18;3.70;;;;;;;18.19;41.11;101935.31;5011876;28;20108;-80
2020/12/26 03:20:04;;;;;;;15.38;3.38;;;;;;;17.99;41.48;101919.50;5011939;28;20380;-79
2020/12/26 03:22:31;;;;;;;19.45;3.78;;;;;;;18.00;41.43;101916.41;5011756;28;20106;-76
2020/12/26 03:24:56;;;;;;;21.92;4.15;;;;;;;18.02;41.35;101914.09;5011886;28;20064;-76
2020/12/26 03:27:23;;;;;;;17.77;3.85;;;;;;;17.96;41.31;101920.16;5011863;28;20049;-75
2020/12/26 03:29:49;;;;;;;22.50;4.82;;;;;;;17.97;41.16;101910.72;5011766;28;20120;-76
2020/12/26 03:32:15;;;;;;;20.05;4.72;;;;;;;17.96;41.14;101904.38;5013592;28;20084;-76
2020/12/26 03:34:41;;;;;;;22.77;4.30;;;;;;;17.88;41.24;101902.47;5015489;28;20022;-79
2020/12/26 03:37:07;;;;;;;18.10;4.18;;;;;;;17.91;41.03;101893.53;5015421;28;20108;-80
2020/12/26 03:39:35;;;;;;;18.17;3.70;;;;;;;17.85;41.15;101886.56;5015458;28;20096;-76
2020/12/26 03:42:11;;;;;;;14.95;3.60;;;;;;;17.72;41.30;101893.13;5015285;28;20117;-77
2020/12/26 03:44:38;;;;;;;18.33;3.65;;;;;;;17.69;41.40;101875.25;5015377;28;20069;-76
2020/12/26 03:47:09;;;;;;;15.23;3.40;;;;;;;17.60;41.59;101868.94;5014941;28;20402;-76
2020/12/26 03:49:36;;;;;;;16.95;3.53;;;;;;;17.72;41.29;101866.31;5015235;28;20034;-76
2020/12/26 03:52:02;;;;;;;10.82;3.70;;;;;;;17.84;41.03;101857.31;5015160;28;20025;-80
2020/12/26 03:54:28;;;;;;;19.08;4.20;;;;;;;17.72;41.08;101855.25;5015203;28;20432;-76
2020/12/26 03:56:53;;;;;;;14.45;3.20;;;;;;;17.77;41.24;101861.75;5015111;28;20485;-76
2020/12/26 03:59:19;;;;;;;12.60;3.53;;;;;;;17.75;41.21;101854.56;5015056;28;20030;-76
2020/12/26 04:01:45;;;;;;;21.35;4.05;;;;;;;17.73;41.26;101843.03;5014985;28;20025;-79
2020/12/26 04:04:13;;;;;;;18.42;3.67;;;;;;;17.83;40.70;101841.03;5014949;28;20117;-78
2020/12/26 04:06:42;;;;;;;21.60;3.97;;;;;;;17.44;42.00;101835.53;5014916;28;20113;-79
2020/12/26 04:09:09;;;;;;;12.90;3.53;;;;;;;17.56;41.58;101826.53;5014853;28;20222;-80
2020/12/26 04:11:35;;;;;;;14.85;3.13;;;;;;;17.59;41.43;101825.84;5014727;28;20021;-80
2020/12/26 04:14:00;;;;;;;11.45;2.85;;;;;;;17.14;42.51;101818.13;5013333;28;20040;-79
2020/12/26 04:16:26;;;;;;;16.85;3.38;;;;;;;17.54;41.85;101803.97;5014782;28;20030;-80
2020/12/26 04:18:52;;;;;;;16.13;3.33;;;;;;;17.43;42.00;101805.47;5014763;28;20026;-77
2020/12/26 04:21:21;;;;;;;12.77;3.15;;;;;;;17.43;41.73;101813.78;5014440;28;20045;-77
2020/12/26 04:23:47;;;;;;;12.32;2.50;;;;;;;17.50;41.75;101814.06;5014716;28;20412;-79
2020/12/26 04:26:13;;;;;;;14.20;3.97;;;;;;;17.40;41.58;101806.97;5014644;28;20029;-79
2020/12/26 04:28:39;;;;;;;12.43;2.92;;;;;;;17.30;41.78;101798.22;5014570;28;20029;-80
2020/12/26 04:31:04;;;;;;;10.73;2.53;;;;;;;17.16;41.64;101776.38;5014541;28;20029;-76
2020/12/26 04:33:30;;;;;;;12.43;3.10;;;;;;;17.01;41.85;101766.72;5014412;28;20029;-76
2020/12/26 04:35:56;;;;;;;12.40;3.38;;;;;;;17.48;40.76;101766.63;5014435;28;20026;-76
2020/12/26 04:38:22;;;;;;;16.77;3.85;;;;;;;17.44;40.86;101762.88;5014369;28;20034;-75
2020/12/26 04:40:48;;;;;;;18.00;4.68;;;;;;;17.39;41.15;101763.91;5014295;28;20402;-77
2020/12/26 04:43:14;;;;;;;10.70;3.25;;;;;;;17.60;40.74;101760.34;5013451;28;20113;-80
2020/12/26 04:45:40;;;;;;;14.32;3.10;;;;;;;17.60;40.61;101763.91;5014044;28;20028;-76
2020/12/26 04:48:14;;;;;;;17.67;4.43;;;;;;;17.70;40.21;101771.84;5014068;28;20026;-80
2020/12/26 04:50:46;;;;;;;20.80;4.07;;;;;;;17.82;39.91;101767.53;5014184;28;20037;-79
2020/12/26 04:53:15;;;;;;;18.90;4.43;;;;;;;17.93;39.79;101763.22;5014119;28;20095;-79
2020/12/26 04:55:46;;;;;;;18.40;3.90;;;;;;;17.88;39.80;101760.66;5014032;28;20025;-76
2020/12/26 04:58:11;;;;;;;19.55;3.80;;;;;;;17.81;39.96;101754.88;5014018;28;20034;-79
2020/12/26 05:00:39;;;;;;;16.02;3.95;;;;;;;17.82;39.76;101750.94;5013901;28;20030;-75
2020/12/26 05:03:10;;;;;;;17.05;3.78;;;;;;;17.66;39.87;101759.00;5013743;28;20108;-76
2020/12/26 05:05:37;;;;;;;15.55;3.60;;;;;;;17.85;39.75;101755.81;5013913;28;20381;-76
2020/12/26 05:08:08;;;;;;;16.45;4.07;;;;;;;17.94;39.51;101756.56;5013844;28;20014;-81
2020/12/26 05:10:35;;;;;;;21.45;3.88;;;;;;;17.67;39.83;101746.81;5013825;28;20668;-76
2020/12/26 05:13:12;;;;;;;20.60;4.00;;;;;;;17.74;39.37;101747.09;5013759;28;20392;-75
2020/12/26 05:15:37;;;;;;;17.05;3.45;;;;;;;17.53;40.03;101747.06;5013641;28;20026;-79
2020/12/26 05:18:04;;;;;;;14.07;4.05;;;;;;;17.66;39.73;101743.22;5013690;28;20092;-78
2020/12/26 05:20:30;;;;;;;18.75;3.67;;;;;;;17.77;39.29;101737.34;5013580;28;20448;-76
2020/12/26 05:23:09;;;;;;;13.65;4.07;;;;;;;17.59;39.40;101726.38;5013508;28;20026;-79
2020/12/26 05:25:44;;;;;;;20.67;4.05;;;;;;;17.57;39.23;101725.91;5013421;28;20028;-76
2020/12/26 05:28:13;;;;;;;17.10;3.22;;;;;;;17.56;39.57;101723.50;5013471;28;20559;-76
2020/12/26 05:30:41;;;;;;;21.90;4.20;;;;;;;17.50;39.63;101719.31;5013367;28;20034;-76
2020/12/26 05:33:08;;;;;;;17.65;3.60;;;;;;;17.56;39.56;101716.00;5013258;28;20026;-76
2020/12/26 05:36:05;;;;;;;17.38;4.60;;;;;;;17.32;39.89;101707.56;5013260;28;20025;-76
2020/12/26 05:38:31;;;;;;;16.98;3.53;;;;;;;17.58;39.65;101694.38;5012335;28;20034;-76
2020/12/26 05:41:01;;;;;;;16.13;3.97;;;;;;;17.77;39.08;101699.47;5013138;28;20026;-76
2020/12/26 05:43:28;;;;;;;21.13;4.72;;;;;;;17.50;40.01;101702.72;5013150;28;20061;-76
2020/12/26 05:45:54;;;;;;;17.05;3.92;;;;;;;17.43;39.92;101681.97;5012943;28;20022;-80
2020/12/26 05:48:27;;;;;;;16.27;3.30;;;;;;;17.56;39.58;101685.63;5013029;28;20480;-76
2020/12/26 05:51:00;;;;;;;14.23;3.67;;;;;;;17.52;39.80;101678.31;5013015;28;20032;-76
2020/12/26 05:53:27;;;;;;;24.20;4.68;;;;;;;17.38;40.19;101665.59;5012967;28;20034;-79
2020/12/26 05:55:53;;;;;;;19.42;4.28;;;;;;;17.49;39.87;101646.66;5012113;28;20037;-76
2020/12/26 05:58:21;;;;;;;20.65;4.70;;;;;;;17.42;39.97;101636.16;5012982;28;20026;-75
2020/12/26 06:00:47;;;;;;;17.33;5.25;;;;;;;17.43;40.17;101629.47;5012851;28;20025;-76
2020/12/26 06:03:26;;;;;;;21.08;4.50;;;;;;;17.52;39.97;101623.88;5012715;28;20038;-76
2020/12/26 06:05:55;;;;;;;17.55;4.32;;;;;;;17.60;40.03;101614.69;5012787;28;20037;-76
2020/12/26 06:08:22;;;;;;;22.27;4.90;;;;;;;17.57;40.19;101607.09;5012754;28;20108;-76
2020/12/26 06:10:51;;;;;;;19.35;6.55;;;;;;;17.61;39.47;101605.28;5012743;28;20735;-76
2020/12/26 06:13:18;;;;;;;23.75;4.88;;;;;;;17.37;40.17;101617.00;5012844;28;20109;-79
2020/12/26 06:16:16;;;;;;;19.67;4.20;;;;;;;17.34;39.88;101611.34;5012457;28;20026;-78
2020/12/26 06:18:57;;;;;;;17.67;4.07;;;;;;;17.35;40.05;101604.69;5012657;28;20022;-77
2020/12/26 06:21:24;;;;;;;16.05;3.53;;;;;;;17.22;40.26;101597.47;5012624;28;20389;-75
2020/12/26 06:23:51;;;;;;;23.38;4.35;;;;;;;17.04;40.84;101596.81;5012098;28;20034;-76
2020/12/26 06:26:17;;;;;;;15.15;3.92;;;;;;;16.95;40.70;101588.59;5011285;28;20032;-79
2020/12/26 06:28:45;;;;;;;16.85;3.45;;;;;;;17.06;40.63;101587.03;5012506;28;20022;-76
2020/12/26 06:31:12;;;;;;;20.30;3.97;;;;;;;17.12;40.39;101577.41;5012339;28;20026;-76
2020/12/26 06:33:38;;;;;;;12.15;3.05;;;;;;;17.10;40.70;101573.38;5012197;28;20033;-75
2020/12/26 06:36:05;;;;;;;14.18;3.40;;;;;;;17.14;40.34;101553.03;5012352;28;20489;-75
2020/12/26 06:38:31;;;;;;;22.65;3.70;;;;;;;17.01;40.61;101567.94;5012311;28;20068;-76
2020/12/26 06:41:02;;;;;;;13.43;4.45;;;;;;;17.04;40.44;101567.25;5012306;28;20029;-79
2020/12/26 06:43:40;;;;;;;14.35;3.88;;;;;;;17.05;40.29;101555.03;5012117;28;20033;-76
2020/12/26 06:46:29;;;;;;;16.83;3.88;;;;;;;16.71;40.55;101547.84;5012186;28;20525;-78
2020/12/26 06:48:57;;;;;;;16.13;4.57;;;;;;;16.64;40.90;101555.81;5012064;28;20072;-75
2020/12/26 06:51:29;;;;;;;28.98;4.93;;;;;;;16.63;40.90;101549.47;5012232;28;20026;-77
2020/12/26 06:53:57;;;;;;;16.75;3.95;;;;;;;16.59;41.10;101542.19;5012155;28;20083;-76
2020/12/26 06:56:34;;;;;;;17.00;4.38;;;;;;;16.56;41.39;101518.06;5012060;28;20026;-76
2020/12/26 06:59:08;;;;;;;13.32;3.15;;;;;;;16.59;41.38;101496.09;5012111;28;20018;-77
2020/12/26 07:01:36;;;;;;;16.33;3.35;;;;;;;16.33;41.90;101487.19;5012171;28;20026;-77
2020/12/26 07:04:10;;;;;;;15.13;3.90;;;;;;;16.49;41.44;101498.47;5011976;28;20396;-78
2020/12/26 07:06:47;;;;;;;19.52;3.67;;;;;;;16.36;41.81;101486.53;5013008;28;20026;-76
2020/12/26 07:09:14;;;;;;;13.77;3.65;;;;;;;16.41;41.67;101467.03;5015971;28;20030;-77
2020/12/26 07:11:45;;;;;;;16.55;3.88;;;;;;;16.43;41.48;101469.44;5015993;28;20472;-76
2020/12/26 07:14:33;;;;;;;11.02;3.08;;;;;;;16.39;41.68;101466.53;5015975;28;20037;-78
2020/12/26 07:17:03;;;;;;;11.52;3.47;;;;;;;16.91;40.59;101455.94;5015907;28;20030;-79
2020/12/26 07:19:40;;;;;;;12.13;3.35;;;;;;;16.35;41.50;101462.84;5015747;28;20025;-76
2020/12/26 07:22:10;;;;;;;16.15;3.92;;;;;;;16.63;41.37;101476.94;5015792;28;20088;-76
2020/12/26 07:24:38;;;;;;;16.88;3.65;;;;;;;16.50;41.52;101461.44;5015749;28;20025;-76
2020/12/26 07:27:23;;;;;;;16.63;4.93;;;;;;;16.40;41.73;101429.56;5015635;28;20072;-76
2020/12/26 07:30:10;;;;;;;12.10;2.70;;;;;;;16.42;41.57;101431.97;5015544;28;20018;-76
2020/12/26 07:32:35;;;;;;;12.77;3.88;;;;;;;16.68;41.03;101410.50;5015534;28;20026;-76
2020/12/26 07:35:02;;;;;;;13.75;4.15;;;;;;;16.21;41.92;101415.41;5015478;28;20033;-76
2020/12/26 07:37:28;;;;;;;17.35;3.95;;;;;;;16.63;41.28;101416.25;5015308;28;20515;-76
2020/12/26 07:39:53;;;;;;;18.40;4.03;;;;;;;17.03;40.20;101419.31;5015427;28;20030;-76
2020/12/26 07:42:22;;;;;;;14.07;3.65;;;;;;;17.11;40.47;101418.41;4997702;28;20026;-76
2020/12/26 07:44:48;;;;;;;20.08;3.67;;;;;;;17.08;40.23;101407.25;5015279;28;20049;-78
2020/12/26 07:47:14;;;;;;;15.93;3.53;;;;;;;16.90;40.96;101401.06;5015172;28;20113;-78
2020/12/26 07:49:40;;;;;;;25.65;4.15;;;;;;;16.89;41.02;101397.50;5015204;28;20030;-79
2020/12/26 07:52:07;;;;;;;13.90;3.33;;;;;;;16.70;41.78;101394.47;5015169;28;20388;-78
2020/12/26 07:54:34;;;;;;;24.30;5.50;;;;;;;16.91;41.28;101394.41;5015130;28;20026;-75
2020/12/26 07:57:00;;;;;;;32.70;5.35;;;;;;;16.96;41.29;101380.41;5015184;28;20049;-77
2020/12/26 07:59:27;;;;;;;16.83;3.67;;;;;;;17.14;40.76;101392.06;5015104;28;20041;-75
2020/12/26 08:01:56;;;;;;;18.13;4.50;;;;;;;16.89;41.47;101386.47;5014979;28;20026;-76
2020/12/26 08:04:23;;;;;;;18.65;3.65;;;;;;;17.17;40.79;101369.31;5014981;28;20037;-76
2020/12/26 08:06:50;;;;;;;13.90;3.60;;;;;;;17.12;40.63;101355.69;5014925;28;20026;-75
2020/12/26 08:09:17;;;;;;;26.55;5.13;;;;;;;16.60;42.26;101354.25;5014861;28;20033;-78
2020/12/26 08:11:44;;;;;;;17.73;4.20;;;;;;;17.08;40.89;101366.63;5014870;28;20030;-75
2020/12/26 08:14:11;;;;;;;13.20;3.25;;;;;;;17.08;40.84;101372.16;5014881;28;20052;-80
2020/12/26 08:16:37;;;;;;;23.15;4.30;;;;;;;17.10;40.78;101338.69;5014828;28;20410;-79
2020/12/26 08:19:04;;;;;;;16.58;3.53;;;;;;;17.01;40.86;101352.59;5013698;28;20380;-76
2020/12/26 08:21:33;;;;;;;21.52;4.53;;;;;;;17.27;40.45;101332.13;5014698;28;20041;-77
2020/12/26 08:24:01;;;;;;;15.80;3.97;;;;;;;17.00;41.05;101331.63;5019921;28;20108;-75
2020/12/26 08:26:28;;;;;;;15.35;3.13;;;;;;;16.92;41.13;101333.34;5034386;28;20029;-77
2020/12/26 08:28:58;;;;;;;16.40;3.72;;;;;;;16.75;41.20;101321.69;5031033;28;20538;-76
2020/12/26 08:31:24;;;;;;;19.92;4.03;;;;;;;16.72;41.45;101323.19;5034396;28;20052;-78
2020/12/26 08:34:12;;;;;;;16.35;3.65;;;;;;;16.59;41.61;101332.53;5034440;28;20029;-75
2020/12/26 08:36:44;;;;;;;19.02;4.28;;;;;;;16.83;41.41;101323.53;5034101;28;20049;-76
2020/12/26 08:39:09;;;;;;;19.05;4.50;;;;;;;17.15;40.36;101294.25;5034167;28;20156;-76
2020/12/26 08:41:40;;;;;;;15.43;4.18;;;;;;;16.96;40.98;101267.22;5034086;28;20559;-76
2020/12/26 08:44:10;;;;;;;14.30;3.53;;;;;;;17.10;40.13;101261.38;5033888;28;20033;-76
2020/12/26 08:46:42;;;;;;;19.48;3.92;;;;;;;17.23;40.21;101259.41;5015932;28;20137;-79
2020/12/26 08:49:08;;;;;;;17.42;3.90;;;;;;;17.15;40.31;101245.38;5033992;28;20025;-76
2020/12/26 08:51:40;;;;;;;14.13;3.50;;;;;;;16.82;40.89;101256.50;5033884;28;20036;-75
2020/12/26 08:54:06;;;;;;;17.42;4.20;;;;;;;16.87;40.60;101244.44;5033939;28;20029;-75
2020/12/26 08:56:36;;;;;;;14.02;3.28;;;;;;;17.22;39.97;101227.41;5033760;28;20025;-75
2020/12/26 08:59:02;;;;;;;19.75;4.13;;;;;;;17.22;39.83;101208.88;5033772;28;20026;-79
2020/12/26 09:01:29;;;;;;;13.05;3.50;;;;;;;16.84;40.76;101209.22;5030395;28;20044;-76
2020/12/26 09:03:56;;;;;;;27.85;5.45;;;;;;;17.04;40.30;101219.38;5010209;28;20028;-75
2020/12/26 09:06:40;;;;;;;9.93;2.28;;;;;;;16.64;41.12;101199.88;5012732;28;20073;-75
2020/12/26 09:09:32;;;;;;;18.17;4.78;;;;;;;16.60;41.19;101177.69;5012387;28;20484;-75
2020/12/26 09:12:04;;;;;;;23.15;4.43;;;;;;;16.90;40.47;101155.41;5009622;28;20104;-75
2020/12/26 09:14:30;;;;;;;12.02;3.20;;;;;;;16.86;40.48;101143.47;5370524;22;21161;-81
2020/12/26 09:17:00;;;;;;;14.20;3.60;;;;;;;16.94;40.56;101133.47;5059178;28;20071;-82
2020/12/26 09:19:27;;;;;;;16.15;3.28;;;;;;;16.79;40.70;101137.72;5052792;28;20058;-82
2020/12/26 09:22:06;;;;;;;24.20;5.47;;;;;;;15.93;42.30;101139.50;5075962;28;20055;-82
2020/12/26 09:24:32;;;;;;;19.00;5.07;;;;;;;16.84;40.63;101129.19;5109598;28;20042;-80
2020/12/26 09:26:57;;;;;;;17.55;4.97;;;;;;;16.89;40.31;101120.69;5085787;28;20027;-82
2020/12/26 09:29:24;;;;;;;20.80;3.45;;;;;;;16.63;41.06;101097.00;5102911;28;20038;-81
2020/12/26 09:31:51;;;;;;;20.08;5.20;;;;;;;16.70;41.01;101073.56;5079140;28;20036;-82
2020/12/26 09:34:22;;;;;;;15.80;4.05;;;;;;;17.04;40.01;101066.72;5088706;28;20114;-82
2020/12/26 09:37:01;;;;;;;22.05;3.97;;;;;;;16.66;40.96;101056.88;5094656;28;20122;-85
2020/12/26 09:39:26;;;;;;;17.13;3.80;;;;;;;16.89;40.57;101044.22;5077733;28;20032;-88
2020/12/26 09:41:52;;;;;;;14.68;3.25;;;;;;;16.80;40.56;101042.75;5076249;28;20461;-93
2020/12/26 09:44:18;;;;;;;14.73;3.85;;;;;;;17.32;39.79;101036.41;5079626;28;20111;-85
2020/12/26 09:46:44;;;;;;;20.75;3.75;;;;;;;17.09;39.95;101052.69;5076394;28;20024;-85
2020/12/26 09:49:11;;;;;;;22.08;5.78;;;;;;;17.01;40.06;101039.84;5077125;28;20055;-83
2020/12/26 09:51:37;;;;;;;20.65;5.43;;;;;;;17.16;40.03;101026.09;5068727;28;20478;-84
2020/12/26 09:54:03;;;;;;;17.75;4.82;;;;;;;17.04;40.20;101019.81;5073014;28;20028;-85
2020/12/26 09:56:29;;;;;;;13.55;3.45;;;;;;;16.76;40.75;101001.22;5065405;28;20028;-84
2020/12/26 09:58:56;;;;;;;21.00;3.92;;;;;;;16.88;40.45;101008.69;5076543;28;20107;-84
2020/12/26 10:01:22;;;;;;;23.17;5.63;;;;;;;16.79;40.52;100995.03;5074800;28;20035;-83
2020/12/26 10:03:49;;;;;;;21.15;3.72;;;;;;;17.07;40.08;100988.72;5075793;28;20032;-81
2020/12/26 10:06:16;;;;;;;23.30;5.50;;;;;;;17.04;40.05;100983.91;5075366;28;20114;-83
2020/12/26 10:08:43;;;;;;;18.23;3.85;;;;;;;16.97;40.34;100948.63;5073718;28;20024;-83
2020/12/26 10:11:14;;;;;;;15.50;4.15;;;;;;;16.61;40.86;100953.06;5075284;28;20119;-86
2020/12/26 10:13:40;;;;;;;13.90;4.60;;;;;;;17.01;40.23;100949.53;5093639;28;20526;-82
2020/12/26 10:16:06;;;;;;;15.82;3.58;;;;;;;16.96;40.40;100932.44;5075210;28;20064;-81
2020/12/26 10:18:31;;;;;;;17.10;4.85;;;;;;;16.64;41.18;100935.84;5074467;28;20066;-80
2020/12/26 10:20:57;;;;;;;16.33;4.40;;;;;;;17.23;39.71;100916.97;5075485;28;20489;-81
2020/12/26 10:23:23;;;;;;;25.85;4.82;;;;;;;17.11;40.28;100929.72;5075199;28;20039;-81
2020/12/26 10:25:49;;;;;;;15.68;4.80;;;;;;;16.83;40.71;100935.22;5075544;28;20547;-82
2020/12/26 10:28:16;;;;;;;17.25;4.15;;;;;;;16.94;40.56;100941.06;5087603;28;20028;-84
2020/12/26 10:30:41;;;;;;;10.65;3.33;;;;;;;17.00;40.55;100939.63;5113216;28;20036;-87
2020/12/26 10:33:07;;;;;;;23.88;4.82;;;;;;;17.23;40.07;100897.66;5096534;28;20035;-85
2020/12/26 10:35:32;;;;;;;14.88;4.57;;;;;;;17.45;39.47;100897.84;5095859;28;20110;-86
2020/12/26 10:37:58;;;;;;;20.23;4.65;;;;;;;17.27;39.65;100907.66;5114411;28;20023;-84
2020/12/26 10:40:23;;;;;;;15.43;4.07;;;;;;;17.00;40.42;100914.00;5114523;28;20576;-88
2020/12/26 10:42:49;;;;;;;15.02;3.60;;;;;;;17.07;40.36;100912.22;5095751;28;20771;-86
2020/12/26 10:45:14;;;;;;;12.50;3.72;;;;;;;17.54;39.17;100899.66;5113652;28;20032;-86
2020/12/26 10:47:40;;;;;;;23.65;4.70;;;;;;;17.37;39.65;100889.75;5096335;28;20122;-86
2020/12/26 10:50:06;;;;;;;16.02;4.45;;;;;;;16.72;40.58;100880.91;5114072;28;20028;-84
2020/12/26 10:52:32;;;;;;;12.68;3.17;;;;;;;16.83;40.79;100876.47;5095765;28;20031;-85
2020/12/26 10:54:58;;;;;;;14.40;3.92;;;;;;;16.99;40.36;100882.03;5096140;28;20358;-86
2020/12/26 10:57:24;;;;;;;25.80;6.07;;;;;;;16.95;40.31;100881.94;5095844;28;20032;-87
2020/12/26 10:59:49;;;;;;;20.13;5.47;;;;;;;17.13;40.18;100880.44;5113780;28;20039;-85
2020/12/26 11:02:15;;;;;;;22.27;4.97;;;;;;;17.00;40.55;100862.34;5113450;28;20046;-87
2020/12/26 11:04:41;;;;;;;15.32;3.45;;;;;;;17.15;40.19;100858.00;5096026;28;20110;-82
2020/12/26 11:07:06;;;;;;;16.08;3.70;;;;;;;16.96;40.81;100828.34;5095911;28;20036;-86
2020/12/26 11:09:32;;;;;;;19.80;4.32;;;;;;;16.78;40.93;100810.50;5095767;28;20027;-84
2020/12/26 11:11:58;;;;;;;27.25;5.82;;;;;;;17.39;39.71;100813.69;5095829;28;20032;-84
2020/12/26 11:14:23;;;;;;;19.38;4.20;;;;;;;17.50;39.75;100800.09;5103249;28;20461;-85
2020/12/26 11:16:53;;;;;;;16.52;3.90;;;;;;;17.00;40.67;100809.91;5055948;28;20620;-86
2020/12/26 11:19:20;;;;;;;27.17;6.47;;;;;;;17.08;40.39;100794.34;5073322;28;20064;-85
2020/12/26 11:21:53;;;;;;;23.15;4.20;;;;;;;17.11;40.38;100786.16;5055897;28;20115;-86